createdAt,value
2022-08-27T00:01:23.692Z,80.17
2022-08-27T00:03:51.374Z,79.71
2022-08-27T00:06:19.772Z,80.05
2022-08-27T00:08:48.552Z,80.52
2022-08-27T00:11:17.363Z,80.21
2022-08-27T00:13:45.642Z,79.82
2022-08-27T00:16:15.291Z,79.71
2022-08-27T00:18:44.393Z,79.92
2022-08-27T00:21:15.705Z,79.59
2022-08-27T00:23:43.440Z,79.58
2022-08-27T00:26:11.374Z,80.07
2022-08-27T00:28:39.839Z,79.74
2022-08-27T00:31:07.747Z,80.18
2022-08-27T00:33:40.261Z,80.29
2022-08-27T00:36:08.366Z,80.63
2022-08-27T00:38:37.380Z,81.35
2022-08-27T00:41:06.296Z,81.33
2022-08-27T00:43:45.202Z,81.33
2022-08-27T00:46:15.933Z,81.90
2022-08-27T00:48:46.030Z,81.68
2022-08-27T00:51:13.842Z,81.99
2022-08-27T00:53:41.485Z,82.00
2022-08-27T00:56:10.859Z,82.15
2022-08-27T00:58:40.069Z,82.62
2022-08-27T01:01:09.062Z,82.69
2022-08-27T01:03:37.908Z,82.83
2022-08-27T01:06:10.910Z,83.31
2022-08-27T01:08:45.526Z,82.40
2022-08-27T01:11:13.323Z,82.23
2022-08-27T01:14:00.210Z,81.59
2022-08-27T01:16:31.812Z,81.61
2022-08-27T01:19:00.831Z,81.69
2022-08-27T01:21:32.676Z,81.79
2022-08-27T01:24:03.770Z,82.25
2022-08-27T01:26:33.091Z,82.09
2022-08-27T01:29:00.707Z,81.41
2022-08-27T01:31:29.253Z,81.46
2022-08-27T01:33:58.556Z,81.40
2022-08-27T01:36:26.234Z,81.85
2022-08-27T01:38:53.944Z,81.70
2022-08-27T01:41:22.457Z,81.66
2022-08-27T01:43:52.267Z,81.32
2022-08-27T01:46:21.895Z,81.47
2022-08-27T01:48:49.692Z,81.13
2022-08-27T01:51:17.610Z,81.25
2022-08-27T01:53:45.125Z,80.48
2022-08-27T01:56:12.938Z,80.94
2022-08-27T01:58:40.616Z,81.00
2022-08-27T02:01:10.878Z,80.14
2022-08-27T02:03:38.837Z,80.02
2022-08-27T02:06:07.965Z,79.81
2022-08-27T02:08:35.982Z,79.64
2022-08-27T02:11:03.733Z,79.62
2022-08-27T02:13:31.248Z,79.93
2022-08-27T02:15:58.831Z,79.74
2022-08-27T02:18:27.791Z,79.26
2022-08-27T02:20:55.372Z,78.61
2022-08-27T02:23:22.955Z,78.74
2022-08-27T02:25:50.995Z,78.48
2022-08-27T02:28:18.567Z,78.07
2022-08-27T02:30:46.172Z,78.14
2022-08-27T02:33:14.099Z,77.75
2022-08-27T02:35:44.331Z,77.59
2022-08-27T02:38:12.788Z,77.69
2022-08-27T02:40:40.540Z,77.27
2022-08-27T02:43:08.850Z,77.40
2022-08-27T02:45:37.440Z,76.13
2022-08-27T02:48:05.748Z,76.87
2022-08-27T02:50:33.661Z,76.69
2022-08-27T02:53:03.170Z,76.87
2022-08-27T02:55:31.018Z,76.95
2022-08-27T02:57:58.654Z,76.46
2022-08-27T03:00:29.008Z,76.87
2022-08-27T03:02:56.883Z,76.89
2022-08-27T03:05:24.845Z,76.47
2022-08-27T03:07:52.435Z,76.49
2022-08-27T03:10:21.834Z,76.83
2022-08-27T03:12:49.570Z,76.62
2022-08-27T03:15:18.467Z,76.40
2022-08-27T03:18:03.413Z,76.74
2022-08-27T03:20:30.990Z,76.72
2022-08-27T03:22:58.531Z,76.29
2022-08-27T03:25:27.824Z,76.27
2022-08-27T03:27:55.441Z,75.99
2022-08-27T03:30:23.438Z,75.85
2022-08-27T03:32:51.556Z,76.00
2022-08-27T03:35:19.784Z,76.08
2022-08-27T03:37:47.581Z,76.21
2022-08-27T03:40:16.353Z,75.82
2022-08-27T03:42:45.397Z,75.58
2022-08-27T03:45:13.305Z,75.69
2022-08-27T03:47:41.208Z,75.13
2022-08-27T03:50:11.023Z,74.83
2022-08-27T03:52:38.630Z,75.19
2022-08-27T03:55:07.514Z,75.24
2022-08-27T03:57:35.158Z,74.90
2022-08-27T04:00:04.963Z,75.41
2022-08-27T04:02:32.587Z,74.46
2022-08-27T04:05:00.186Z,74.56
2022-08-27T04:07:27.804Z,74.54
2022-08-27T04:09:55.407Z,74.23
2022-08-27T04:12:23.021Z,74.78
2022-08-27T04:14:50.602Z,74.75
2022-08-27T04:17:19.542Z,74.63
2022-08-27T04:19:47.052Z,74.66
2022-08-27T04:22:14.966Z,75.03
2022-08-27T04:24:42.919Z,74.47
2022-08-27T04:27:11.082Z,74.17
2022-08-27T04:29:38.694Z,74.37
2022-08-27T04:32:07.504Z,73.95
2022-08-27T04:34:36.924Z,73.82
2022-08-27T04:37:05.427Z,74.13
2022-08-27T04:39:33.642Z,74.09
2022-08-27T04:42:01.656Z,74.18
2022-08-27T04:44:30.556Z,74.13
2022-08-27T04:46:58.870Z,74.09
2022-08-27T04:49:27.297Z,73.80
2022-08-27T04:51:56.503Z,73.89
2022-08-27T04:54:32.306Z,73.83
2022-08-27T04:57:00.855Z,73.72
2022-08-27T04:59:28.399Z,73.87
2022-08-27T05:01:55.990Z,73.27
2022-08-27T05:04:23.672Z,73.67
2022-08-27T05:06:54.878Z,73.09
2022-08-27T05:09:24.574Z,73.17
2022-08-27T05:11:55.558Z,72.87
2022-08-27T05:14:24.090Z,72.60
2022-08-27T05:16:51.672Z,72.87
2022-08-27T05:19:19.287Z,72.25
2022-08-27T05:21:48.222Z,72.07
2022-08-27T05:24:16.544Z,72.18
2022-08-27T05:26:45.843Z,72.14
2022-08-27T05:29:14.161Z,71.85
2022-08-27T05:31:42.275Z,72.02
2022-08-27T05:34:10.487Z,71.69
2022-08-27T05:36:48.092Z,71.47
2022-08-27T05:39:16.999Z,71.16
2022-08-27T05:41:46.017Z,71.08
2022-08-27T05:47:03.431Z,70.45
2022-08-27T05:49:31.145Z,70.12
2022-08-27T05:51:58.753Z,69.73
2022-08-27T05:54:41.682Z,68.85
2022-08-27T05:57:10.611Z,69.27
2022-08-27T05:59:55.995Z,69.32
2022-08-27T06:02:23.961Z,69.14
2022-08-27T06:04:51.942Z,68.69
2022-08-27T06:07:19.729Z,68.70
2022-08-27T06:09:47.438Z,68.00
2022-08-27T06:12:16.449Z,67.88
2022-08-27T06:14:44.025Z,67.73
2022-08-27T06:17:11.577Z,67.21
2022-08-27T06:19:39.184Z,67.32
2022-08-27T06:22:10.001Z,66.15
2022-08-27T06:24:39.215Z,65.84
2022-08-27T06:27:07.014Z,65.90
2022-08-27T06:29:35.958Z,66.29
2022-08-27T06:32:03.613Z,65.02
2022-08-27T06:34:31.162Z,65.86
2022-08-27T06:36:58.775Z,65.65
2022-08-27T06:39:27.076Z,65.41
2022-08-27T06:41:55.465Z,65.18
2022-08-27T06:44:24.321Z,65.32
2022-08-27T06:46:53.303Z,64.81
2022-08-27T06:49:20.915Z,64.36
2022-08-27T06:51:49.031Z,64.69
2022-08-27T06:54:17.070Z,63.80
2022-08-27T06:56:46.948Z,64.17
2022-08-27T06:59:15.362Z,64.19
2022-08-27T07:01:43.905Z,63.74
2022-08-27T07:04:14.008Z,63.75
2022-08-27T07:06:41.892Z,62.94
2022-08-27T07:09:10.038Z,63.09
2022-08-27T07:11:38.226Z,62.50
2022-08-27T07:14:07.100Z,62.71
2022-08-27T07:16:34.867Z,62.38
2022-08-27T07:19:05.066Z,62.26
2022-08-27T07:21:34.857Z,61.84
2022-08-27T07:24:09.222Z,61.79
2022-08-27T07:26:39.392Z,61.62
2022-08-27T07:32:13.115Z,59.92
2022-08-27T07:34:40.714Z,59.94
2022-08-27T07:37:09.535Z,59.22
2022-08-27T07:39:37.140Z,58.72
2022-08-27T07:42:22.566Z,59.02
2022-08-27T07:44:50.118Z,58.67
2022-08-27T07:47:18.474Z,57.53
2022-08-27T07:49:46.084Z,57.11
2022-08-27T07:52:17.697Z,57.61
2022-08-27T07:54:45.602Z,57.80
2022-08-27T07:57:13.144Z,56.73
2022-08-27T07:59:40.727Z,56.70
2022-08-27T08:02:08.336Z,56.66
2022-08-27T08:04:35.945Z,56.19
2022-08-27T08:07:03.564Z,55.38
2022-08-27T08:09:33.592Z,55.59
2022-08-27T08:12:01.121Z,55.53
2022-08-27T08:14:30.402Z,54.87
2022-08-27T08:16:59.814Z,55.61
2022-08-27T08:19:27.516Z,55.46
2022-08-27T08:22:00.317Z,55.11
2022-08-27T08:24:29.032Z,54.64
2022-08-27T08:26:57.863Z,54.38
2022-08-27T08:29:25.667Z,54.75
2022-08-27T08:31:53.267Z,55.59
2022-08-27T08:34:21.485Z,54.45
2022-08-27T08:36:53.958Z,54.75
2022-08-27T08:39:22.637Z,53.66
2022-08-27T08:41:51.772Z,54.46
2022-08-27T08:44:32.695Z,55.52
2022-08-27T08:47:03.350Z,55.96
2022-08-27T08:49:35.155Z,56.00
2022-08-27T08:52:09.058Z,55.59
2022-08-27T08:54:38.563Z,54.74
2022-08-27T08:57:08.055Z,54.70
2022-08-27T08:59:38.793Z,53.80
2022-08-27T09:02:11.281Z,53.69
2022-08-27T09:04:41.932Z,53.52
2022-08-27T09:07:14.061Z,53.50
2022-08-27T09:09:54.662Z,52.58
2022-08-27T09:12:25.077Z,52.40
2022-08-27T09:14:56.248Z,52.39
2022-08-27T09:17:24.777Z,52.61
2022-08-27T09:19:53.458Z,52.62
2022-08-27T09:22:25.003Z,51.87
2022-08-27T09:24:57.172Z,52.39
2022-08-27T09:27:25.126Z,53.53
2022-08-27T09:29:55.119Z,53.71
2022-08-27T09:32:24.828Z,53.70
2022-08-27T09:34:52.842Z,53.19
2022-08-27T09:37:21.866Z,52.88
2022-08-27T09:39:51.273Z,52.16
2022-08-27T09:42:28.174Z,51.93
2022-08-27T09:44:57.484Z,52.46
2022-08-27T09:47:25.415Z,51.73
2022-08-27T09:50:05.915Z,50.21
2022-08-27T09:52:37.834Z,48.96
2022-08-27T09:55:06.330Z,47.40
2022-08-27T09:58:12.663Z,47.85
2022-08-27T10:00:42.287Z,47.84
2022-08-27T10:03:10.518Z,47.00
2022-08-27T10:05:39.585Z,46.84
2022-08-27T10:08:12.278Z,44.79
2022-08-27T10:10:44.202Z,44.47
2022-08-27T10:13:15.421Z,44.06
2022-08-27T10:15:49.507Z,44.25
2022-08-27T10:18:22.334Z,43.08
2022-08-27T10:20:57.149Z,43.25
2022-08-27T10:23:28.569Z,42.65
2022-08-27T10:26:00.275Z,31.80
2022-08-27T10:28:36.682Z,29.00
2022-08-27T10:31:13.939Z,25.95
2022-08-27T10:33:51.801Z,25.56
2022-08-27T10:36:26.756Z,26.95
2022-08-27T10:38:59.488Z,29.09
2022-08-27T10:41:29.187Z,28.86
2022-08-27T10:44:04.146Z,30.85
2022-08-27T10:46:49.950Z,31.78
2022-08-27T10:49:23.703Z,33.41
2022-08-27T10:51:55.983Z,34.86
2022-08-27T10:54:26.457Z,35.85
2022-08-27T10:57:14.391Z,35.87
2022-08-27T10:59:49.215Z,34.54
2022-08-27T11:02:24.410Z,32.54
2022-08-27T11:04:54.542Z,32.50
2022-08-27T11:07:24.548Z,32.85
2022-08-27T11:09:57.053Z,32.98
2022-08-27T11:12:27.473Z,32.87
2022-08-27T11:14:57.486Z,34.12
2022-08-27T11:17:32.017Z,33.90
2022-08-27T11:20:02.512Z,33.46
2022-08-27T11:22:34.519Z,32.66
2022-08-27T11:25:07.132Z,30.75
2022-08-27T11:27:35.638Z,30.56
2022-08-27T11:30:06.365Z,31.80
2022-08-27T11:32:39.184Z,33.33
2022-08-27T11:35:10.468Z,34.84
2022-08-27T11:38:03.084Z,36.34
2022-08-27T11:40:38.160Z,37.16
2022-08-27T11:43:07.303Z,37.79
2022-08-27T11:45:38.525Z,38.67
2022-08-27T11:48:23.316Z,38.23
2022-08-27T11:50:54.926Z,38.40
2022-08-27T11:53:28.459Z,37.42
2022-08-27T11:55:56.566Z,37.40
2022-08-27T11:58:26.090Z,37.96
2022-08-27T12:00:54.380Z,38.27
2022-08-27T12:03:28.356Z,39.62
2022-08-27T12:06:14.486Z,40.91
2022-08-27T12:08:42.014Z,41.19
2022-08-27T12:11:15.322Z,41.62
2022-08-27T12:13:45.750Z,41.81
2022-08-27T12:16:23.609Z,42.07
2022-08-27T12:18:58.743Z,41.48
2022-08-27T12:21:31.671Z,41.46
2022-08-27T12:24:10.588Z,40.90
2022-08-27T12:26:39.815Z,40.79
2022-08-27T12:29:34.548Z,40.81
2022-08-27T12:32:12.648Z,40.20
2022-08-27T12:34:59.121Z,39.31
2022-08-27T12:37:28.949Z,39.03
2022-08-27T12:39:59.717Z,39.53
2022-08-27T12:42:27.298Z,39.05
2022-08-27T12:44:55.688Z,38.58
2022-08-27T12:47:23.691Z,38.96
2022-08-27T12:49:56.403Z,39.02
2022-08-27T12:52:37.828Z,38.56
2022-08-27T12:55:11.421Z,39.41
2022-08-27T12:57:43.143Z,32.87
2022-08-27T13:00:15.449Z,26.17
2022-08-27T13:02:56.571Z,21.44
2022-08-27T13:05:25.563Z,18.95
2022-08-27T13:07:54.475Z,18.83
2022-08-27T13:10:25.421Z,21.65
2022-08-27T13:13:01.996Z,24.20
2022-08-27T13:15:29.610Z,26.29
2022-08-27T13:17:57.319Z,28.41
2022-08-27T13:20:32.440Z,31.02
2022-08-27T13:23:00.234Z,32.64
2022-08-27T13:25:29.651Z,33.25
2022-08-27T13:28:00.105Z,35.74
2022-08-27T13:30:35.833Z,36.38
2022-08-27T13:33:05.160Z,37.00
2022-08-27T13:35:34.595Z,37.61
2022-08-27T13:38:03.617Z,38.72
2022-08-27T13:40:32.764Z,39.67
2022-08-27T13:43:04.742Z,40.17
2022-08-27T13:45:37.076Z,40.68
2022-08-27T13:48:05.867Z,40.83
2022-08-27T13:50:36.060Z,41.01
2022-08-27T13:53:23.560Z,41.10
2022-08-27T13:55:52.050Z,41.47
2022-08-27T13:58:22.103Z,40.89
2022-08-27T14:00:49.653Z,41.05
2022-08-27T14:03:27.819Z,40.53
2022-08-27T14:05:57.258Z,40.69
2022-08-27T14:08:29.258Z,40.31
2022-08-27T14:11:00.319Z,41.18
2022-08-27T14:13:28.765Z,42.44
2022-08-27T14:15:57.223Z,41.90
2022-08-27T14:18:42.562Z,42.44
2022-08-27T14:21:15.795Z,42.30
2022-08-27T14:23:43.347Z,42.73
2022-08-27T14:26:11.018Z,43.20
2022-08-27T14:28:38.629Z,43.76
2022-08-27T14:31:06.301Z,44.29
2022-08-27T14:33:33.849Z,43.54
2022-08-27T14:36:02.008Z,42.57
2022-08-27T14:38:35.088Z,42.40
2022-08-27T14:41:02.685Z,41.98
2022-08-27T14:43:35.503Z,41.90
2022-08-27T14:46:04.041Z,41.12
2022-08-27T14:48:33.521Z,41.61
2022-08-27T14:51:03.427Z,42.04
2022-08-27T14:53:30.950Z,41.86
2022-08-27T14:56:01.759Z,41.70
2022-08-27T14:58:29.366Z,40.87
2022-08-27T15:00:57.683Z,41.10
2022-08-27T15:03:26.094Z,40.53
2022-08-27T15:05:55.267Z,40.62
2022-08-27T15:08:27.438Z,41.07
2022-08-27T15:10:57.120Z,40.86
2022-08-27T15:13:26.129Z,41.97
2022-08-27T15:15:53.796Z,42.17
2022-08-27T15:18:21.470Z,42.06
2022-08-27T15:20:49.357Z,41.47
2022-08-27T15:23:17.890Z,41.39
2022-08-27T15:25:46.779Z,41.45
2022-08-27T15:28:14.415Z,41.02
2022-08-27T15:30:43.435Z,40.87
2022-08-27T15:33:11.012Z,40.91
2022-08-27T15:35:38.670Z,41.48
2022-08-27T15:38:06.233Z,41.69
2022-08-27T15:40:35.645Z,41.90
2022-08-27T15:43:05.560Z,42.54
2022-08-27T15:45:33.574Z,43.10
2022-08-27T15:48:08.577Z,43.99
2022-08-27T15:50:36.187Z,44.33
2022-08-27T15:53:05.397Z,44.82
2022-08-27T15:55:33.716Z,45.77
2022-08-27T15:58:01.433Z,46.25
2022-08-27T16:00:42.715Z,46.65
2022-08-27T16:03:13.533Z,47.23
2022-08-27T16:05:42.466Z,47.71
2022-08-27T16:08:10.237Z,47.65
2022-08-27T16:10:37.886Z,47.72
2022-08-27T16:13:05.618Z,47.97
2022-08-27T16:15:34.217Z,47.39
2022-08-27T16:18:03.808Z,47.38
2022-08-27T16:20:32.733Z,47.08
2022-08-27T16:23:00.234Z,47.45
2022-08-27T16:25:27.785Z,47.06
2022-08-27T16:27:55.434Z,47.87
2022-08-27T16:30:50.126Z,47.52
2022-08-27T16:36:35.397Z,48.02
2022-08-27T16:39:03.004Z,47.77
2022-08-27T16:41:31.426Z,48.01
2022-08-27T16:44:00.549Z,47.91
2022-08-27T16:46:28.111Z,47.91
2022-08-27T16:49:14.335Z,48.14
2022-08-27T16:51:43.790Z,48.21
2022-08-27T16:54:12.471Z,47.58
2022-08-27T16:56:40.384Z,48.41
2022-08-27T16:59:09.291Z,48.17
2022-08-27T17:01:37.657Z,47.52
2022-08-27T17:04:36.745Z,48.15
2022-08-27T17:07:25.995Z,48.61
2022-08-27T17:10:05.727Z,48.67
2022-08-27T17:12:33.728Z,48.72
2022-08-27T17:15:01.464Z,49.27
2022-08-27T17:17:50.125Z,49.28
2022-08-27T17:20:17.821Z,49.28
2022-08-27T17:22:46.703Z,49.43
2022-08-27T17:25:14.290Z,49.58
2022-08-27T17:27:42.024Z,49.82
2022-08-27T17:30:10.464Z,49.70
2022-08-27T17:32:39.786Z,49.94
2022-08-27T17:35:08.166Z,49.76
2022-08-27T17:37:35.869Z,49.85
2022-08-27T17:40:05.810Z,50.30
2022-08-27T17:42:33.491Z,50.18
2022-08-27T17:45:01.104Z,50.56
2022-08-27T17:47:29.826Z,50.42
2022-08-27T17:49:58.424Z,50.50
2022-08-27T17:52:25.997Z,50.93
2022-08-27T17:54:54.443Z,50.84
2022-08-27T17:57:24.759Z,50.84
2022-08-27T17:59:53.371Z,51.20
2022-08-27T18:02:22.655Z,51.24
2022-08-27T18:04:50.817Z,51.81
2022-08-27T18:07:19.196Z,52.05
2022-08-27T18:09:46.814Z,52.08
2022-08-27T18:12:17.628Z,52.41
2022-08-27T18:14:49.630Z,51.94
2022-08-27T18:17:17.190Z,52.35
2022-08-27T18:19:45.801Z,52.10
2022-08-27T18:22:13.520Z,52.13
2022-08-27T18:24:41.025Z,52.56
2022-08-27T18:27:08.640Z,52.53
2022-08-27T18:29:36.195Z,52.50
2022-08-27T18:32:05.307Z,52.67
2022-08-27T18:34:32.876Z,52.57
2022-08-27T18:37:00.343Z,52.59
2022-08-27T18:39:29.042Z,52.94
2022-08-27T18:41:56.554Z,52.75
2022-08-27T18:44:24.161Z,52.94
2022-08-27T18:46:51.719Z,53.32
2022-08-27T18:49:22.191Z,53.55
2022-08-27T18:51:52.636Z,52.99
2022-08-27T18:54:20.555Z,53.04
2022-08-27T18:56:48.212Z,53.34
2022-08-27T18:59:16.233Z,53.42
2022-08-27T19:01:44.183Z,53.51
2022-08-27T19:04:12.858Z,53.63
2022-08-27T19:06:41.760Z,53.89
2022-08-27T19:09:09.708Z,53.92
2022-08-27T19:11:37.685Z,53.41
2022-08-27T19:14:05.273Z,53.50
2022-08-27T19:16:38.817Z,54.01
2022-08-27T19:19:13.721Z,54.13
2022-08-27T19:21:42.969Z,53.84
2022-08-27T19:24:40.169Z,54.11
2022-08-27T19:27:08.354Z,54.06
2022-08-27T19:29:35.969Z,53.94
2022-08-27T19:32:03.625Z,54.27
2022-08-27T19:34:31.215Z,54.23
2022-08-27T19:37:00.711Z,54.40
2022-08-27T19:39:28.409Z,54.59
2022-08-27T19:41:56.812Z,54.48
2022-08-27T19:44:24.506Z,54.64
2022-08-27T19:46:55.741Z,54.61
2022-08-27T19:49:23.353Z,54.50
2022-08-27T19:51:50.844Z,54.77
2022-08-27T19:54:19.890Z,54.49
2022-08-27T19:56:47.571Z,54.73
2022-08-27T19:59:21.202Z,54.38
2022-08-27T20:01:49.207Z,54.12
2022-08-27T20:04:16.868Z,53.98
2022-08-27T20:06:44.429Z,54.24
2022-08-27T20:09:15.943Z,53.90
2022-08-27T20:11:46.060Z,53.99
2022-08-27T20:14:13.673Z,54.33
2022-08-27T20:16:41.328Z,54.24
2022-08-27T20:19:09.348Z,54.07
2022-08-27T20:21:36.897Z,54.18
2022-08-27T20:24:04.714Z,54.30
2022-08-27T20:26:33.315Z,54.02
2022-08-27T20:29:02.761Z,54.63
2022-08-27T20:31:30.333Z,54.84
2022-08-27T20:33:58.054Z,54.95
2022-08-27T20:36:28.160Z,55.04
2022-08-27T20:38:56.069Z,55.24
2022-08-27T20:41:23.821Z,55.30
2022-08-27T20:43:51.489Z,55.07
2022-08-27T20:46:21.811Z,55.14
2022-08-27T20:48:49.615Z,54.03
2022-08-27T20:51:17.224Z,54.63
2022-08-27T20:53:44.770Z,54.18
2022-08-27T20:56:12.345Z,54.57
2022-08-27T20:59:08.769Z,53.85
2022-08-27T21:01:38.723Z,54.00
2022-08-27T21:04:06.386Z,54.16
2022-08-27T21:06:33.990Z,54.41
2022-08-27T21:09:01.533Z,54.38
2022-08-27T21:11:29.118Z,54.05
2022-08-27T21:13:56.904Z,53.53
2022-08-27T21:16:25.030Z,53.67
2022-08-27T21:18:55.554Z,53.82
2022-08-27T21:21:23.255Z,53.55
2022-08-27T21:23:50.956Z,54.01
2022-08-27T21:26:20.088Z,53.61
2022-08-27T21:28:47.664Z,53.74
2022-08-27T21:31:15.138Z,54.13
2022-08-27T21:33:42.708Z,54.09
2022-08-27T21:36:12.497Z,53.92
2022-08-27T21:38:40.131Z,54.43
2022-08-27T21:41:07.781Z,54.68
2022-08-27T21:43:35.354Z,54.76
2022-08-27T21:46:02.909Z,54.97
2022-08-27T21:48:30.674Z,55.31
2022-08-27T21:50:58.292Z,55.10
2022-08-27T21:53:27.178Z,55.14
2022-08-27T21:55:54.949Z,55.86
2022-08-27T21:58:26.361Z,56.00
2022-08-27T22:00:54.287Z,56.17
2022-08-27T22:03:22.763Z,56.21
2022-08-27T22:05:50.350Z,56.46
2022-08-27T22:08:19.277Z,56.68
2022-08-27T22:10:49.483Z,57.01
2022-08-27T22:13:17.694Z,56.98
2022-08-27T22:15:45.305Z,56.74
2022-08-27T22:18:13.103Z,56.62
2022-08-27T22:20:41.513Z,57.02
2022-08-27T22:23:10.267Z,57.00
2022-08-27T22:25:38.135Z,57.04
2022-08-27T22:28:07.461Z,56.75
2022-08-27T22:30:35.058Z,57.34
2022-08-27T22:33:02.725Z,57.37
2022-08-27T22:35:30.537Z,57.50
2022-08-27T22:37:58.089Z,57.74
2022-08-27T22:40:27.877Z,57.83
2022-08-27T22:42:56.411Z,57.58
2022-08-27T22:45:25.988Z,57.72
2022-08-27T22:47:53.633Z,58.45
2022-08-27T22:50:21.847Z,58.20
2022-08-27T22:52:50.085Z,58.15
2022-08-27T22:55:19.668Z,58.69
2022-08-27T22:57:47.378Z,58.70
2022-08-27T23:00:16.788Z,59.04
2022-08-27T23:02:46.154Z,59.07
2022-08-27T23:05:13.853Z,59.00
2022-08-27T23:07:42.120Z,59.23
2022-08-27T23:10:11.161Z,59.32
2022-08-27T23:12:39.058Z,58.91
2022-08-27T23:15:08.752Z,59.09
2022-08-27T23:17:36.781Z,59.31
2022-08-27T23:20:07.977Z,59.11
2022-08-27T23:22:35.631Z,59.22
2022-08-27T23:25:20.801Z,59.41
2022-08-27T23:27:48.508Z,59.47
2022-08-27T23:30:17.120Z,59.72
2022-08-27T23:32:48.857Z,59.67
2022-08-27T23:35:22.946Z,59.68
2022-08-27T23:37:50.517Z,59.61
2022-08-27T23:40:18.766Z,59.83
2022-08-27T23:42:46.690Z,60.02
2022-08-27T23:45:17.787Z,60.17
2022-08-27T23:47:45.394Z,59.69
2022-08-27T23:50:13.283Z,59.61
2022-08-27T23:52:42.220Z,60.25
2022-08-27T23:55:11.030Z,60.23
2022-08-27T23:57:39.759Z,59.98
